Time;durP1;ratioP1;P1;durP2;ratioP2;P2;SDS_P1;SDS_P2;PMS_P1;PMS_P2;Temp;Humidity;BMP_temperature;BMP_pressure;BME280_temperature;BME280_humidity;BME280_pressure;Samples;Min_cycle;Max_cycle;Signal;HPM_P1;HPM_P2
2023/12/17 00:04:42;;;;;;;11.30;4.80;;;23.00;59.40;;;;;;223134;1260;22511;-47
2023/12/17 00:09:46;;;;;;;9.80;4.40;;;23.00;58.90;;;;;;223304;1257;22870;-52
2023/12/17 00:14:50;;;;;;;6.00;4.00;;;23.00;59.30;;;;;;222459;1260;24242;-51
2023/12/17 00:19:55;;;;;;;10.40;4.20;;;23.00;59.50;;;;;;222918;1253;24204;-46
2023/12/17 00:24:59;;;;;;;7.30;3.40;;;22.90;59.60;;;;;;222626;1260;25337;-49
2023/12/17 00:30:08;;;;;;;7.00;3.80;;;23.10;59.40;;;;;;222438;1260;23061;-49
2023/12/17 00:35:14;;;;;;;8.10;3.60;;;23.50;58.80;;;;;;222237;1244;22514;-49
2023/12/17 00:40:19;;;;;;;6.90;3.40;;;23.70;58.10;;;;;;222444;1267;24298;-48
2023/12/17 00:45:23;;;;;;;7.40;3.40;;;23.70;57.90;;;;;;222413;1260;22515;-49
2023/12/17 00:50:28;;;;;;;8.80;3.80;;;23.80;57.70;;;;;;222467;1264;23444;-50
2023/12/17 00:55:32;;;;;;;6.10;3.20;;;23.80;57.80;;;;;;222232;1264;23927;-52
2023/12/17 01:00:36;;;;;;;6.80;3.30;;;23.70;57.50;;;;;;223112;1266;22538;-52
2023/12/17 01:05:56;;;;;;;7.10;3.80;;;23.70;58.10;;;;;;222579;1254;24324;-49
2023/12/17 01:11:01;;;;;;;7.10;3.30;;;23.70;57.80;;;;;;222631;1264;24471;-51
2023/12/17 01:16:06;;;;;;;5.10;2.90;;;23.60;58.00;;;;;;222885;1266;22511;-51
2023/12/17 01:21:11;;;;;;;5.50;3.00;;;23.60;57.90;;;;;;222905;1253;24366;-48
2023/12/17 01:26:23;;;;;;;4.80;3.40;;;23.60;57.60;;;;;;222943;1263;24297;-48
2023/12/17 01:31:27;;;;;;;3.90;2.70;;;23.50;57.80;;;;;;222463;1264;23924;-48
2023/12/17 01:36:31;;;;;;;4.90;3.00;;;23.60;57.50;;;;;;223031;1265;24173;-51
2023/12/17 01:41:36;;;;;;;5.00;3.10;;;23.50;57.50;;;;;;222881;1265;22723;-53
2023/12/17 01:46:41;;;;;;;5.90;3.10;;;23.40;57.70;;;;;;222464;1247;23912;-50
2023/12/17 01:51:46;;;;;;;4.90;3.30;;;23.40;57.40;;;;;;222681;1263;22528;-51
2023/12/17 01:56:50;;;;;;;3.70;3.00;;;23.40;57.10;;;;;;222907;1263;22529;-51
2023/12/17 02:01:56;;;;;;;3.80;3.00;;;23.40;57.30;;;;;;222469;1258;24203;-49
2023/12/17 02:07:02;;;;;;;4.80;2.60;;;23.40;57.80;;;;;;222503;1263;22640;-51
2023/12/17 02:12:07;;;;;;;4.90;2.50;;;23.50;57.10;;;;;;222417;1259;23706;-51
2023/12/17 02:17:13;;;;;;;4.90;3.00;;;23.70;56.70;;;;;;222922;1268;22514;-49
2023/12/17 02:22:16;;;;;;;2.70;2.20;;;23.80;56.60;;;;;;222760;1263;24187;-52
2023/12/17 02:27:23;;;;;;;4.80;2.60;;;23.90;56.10;;;;;;222644;1252;22532;-53
2023/12/17 02:32:28;;;;;;;3.70;2.60;;;23.90;56.10;;;;;;222299;1268;22573;-51
2023/12/17 02:37:33;;;;;;;3.60;2.60;;;23.90;56.70;;;;;;222608;1264;22541;-50
2023/12/17 02:42:38;;;;;;;2.30;2.10;;;23.80;56.10;;;;;;222646;1265;24330;-51
2023/12/17 02:47:51;;;;;;;4.10;2.50;;;23.80;56.50;;;;;;222391;1264;24214;-53
2023/12/17 02:52:56;;;;;;;4.10;3.00;;;23.70;56.40;;;;;;222673;1261;22517;-49
2023/12/17 02:58:04;;;;;;;3.60;2.30;;;23.70;56.90;;;;;;222975;1260;22521;-52
2023/12/17 03:03:08;;;;;;;4.10;2.50;;;23.80;56.50;;;;;;222884;1264;22979;-51
2023/12/17 03:08:15;;;;;;;2.30;2.10;;;23.70;56.60;;;;;;222813;1260;24176;-51
2023/12/17 03:13:19;;;;;;;4.00;2.10;;;23.70;56.40;;;;;;222725;1260;22627;-47
2023/12/17 03:18:24;;;;;;;3.80;2.00;;;23.60;56.80;;;;;;222740;1259;25290;-49
2023/12/17 03:23:29;;;;;;;2.60;2.10;;;23.70;56.30;;;;;;222518;1268;24166;-49
2023/12/17 03:28:34;;;;;;;3.50;1.90;;;23.60;56.20;;;;;;222590;1260;22626;-48
2023/12/17 03:33:38;;;;;;;2.30;1.80;;;23.60;56.30;;;;;;221952;1271;24269;-53
2023/12/17 03:38:46;;;;;;;2.50;1.90;;;23.50;56.20;;;;;;221868;1264;25163;-50
2023/12/17 03:43:53;;;;;;;6.20;2.00;;;23.50;56.00;;;;;;222055;1266;22530;-56
2023/12/17 03:48:57;;;;;;;3.60;2.30;;;23.30;56.30;;;;;;221972;1271;24183;-54
2023/12/17 03:54:02;;;;;;;2.30;2.10;;;23.30;56.70;;;;;;222078;1269;24525;-55
2023/12/17 03:59:07;;;;;;;5.30;1.90;;;23.50;56.40;;;;;;222565;1268;23037;-56
2023/12/17 04:04:12;;;;;;;2.60;2.10;;;23.80;56.50;;;;;;222838;1257;24371;-58
2023/12/17 04:09:19;;;;;;;4.00;1.80;;;23.90;55.50;;;;;;225081;1268;22517;-57
2023/12/17 04:14:23;;;;;;;5.00;2.00;;;24.10;55.40;;;;;;222404;1259;22514;-56
2023/12/17 04:19:28;;;;;;;4.60;2.50;;;24.10;55.30;;;;;;222464;1263;23383;-58
2023/12/17 04:24:33;;;;;;;2.60;1.90;;;24.00;55.40;;;;;;222412;1259;25523;-56
2023/12/17 04:29:37;;;;;;;2.40;2.10;;;24.00;55.50;;;;;;222394;1266;25344;-58
2023/12/17 04:34:42;;;;;;;3.30;1.70;;;23.90;55.50;;;;;;222481;1268;22691;-56
2023/12/17 04:39:46;;;;;;;1.70;1.50;;;23.90;55.40;;;;;;222577;1266;22577;-57
2023/12/17 04:44:51;;;;;;;1.80;1.60;;;23.90;55.70;;;;;;222524;1269;22518;-56
2023/12/17 04:49:56;;;;;;;1.70;1.50;;;23.80;55.90;;;;;;222616;1267;22533;-53
2023/12/17 04:55:00;;;;;;;2.70;1.80;;;23.70;55.90;;;;;;222538;1268;25666;-55
2023/12/17 05:00:06;;;;;;;1.60;1.50;;;23.60;56.30;;;;;;222201;1263;24349;-56
2023/12/17 05:05:11;;;;;;;2.60;1.80;;;23.60;56.20;;;;;;222632;1268;22628;-56
2023/12/17 05:10:15;;;;;;;3.60;1.80;;;23.60;56.10;;;;;;222885;1268;25412;-56
2023/12/17 05:15:21;;;;;;;2.00;1.70;;;23.50;56.60;;;;;;222376;1262;24228;-56
2023/12/17 05:20:25;;;;;;;2.60;1.60;;;23.40;56.80;;;;;;222639;1265;22573;-56
2023/12/17 05:25:30;;;;;;;1.50;1.40;;;23.30;57.00;;;;;;222712;1253;22510;-54
2023/12/17 05:30:34;;;;;;;3.20;1.50;;;23.30;57.20;;;;;;222435;1260;22511;-55
2023/12/17 05:35:39;;;;;;;2.50;2.20;;;23.20;57.30;;;;;;222464;1262;24998;-56
2023/12/17 05:40:43;;;;;;;3.90;2.00;;;23.10;56.80;;;;;;222933;1266;22514;-55
2023/12/17 05:45:48;;;;;;;2.10;1.80;;;23.10;57.10;;;;;;222900;1266;22507;-57
2023/12/17 05:51:02;;;;;;;2.20;1.30;;;23.00;57.60;;;;;;222440;1266;22530;-57
2023/12/17 05:56:06;;;;;;;2.10;1.40;;;23.00;57.50;;;;;;222892;1258;24378;-56
2023/12/17 06:01:11;;;;;;;1.40;1.30;;;22.90;57.30;;;;;;222737;1266;25706;-56
2023/12/17 06:06:16;;;;;;;1.40;1.30;;;22.90;56.90;;;;;;222608;1257;25397;-55
2023/12/17 06:11:22;;;;;;;1.80;1.60;;;22.90;57.30;;;;;;223031;1266;25475;-56
2023/12/17 06:16:26;;;;;;;2.30;1.60;;;23.10;57.10;;;;;;222605;1268;22544;-57
2023/12/17 06:21:30;;;;;;;2.40;1.60;;;23.50;56.20;;;;;;222644;1266;231455;-53
2023/12/17 06:26:38;;;;;;;2.40;1.40;;;23.60;55.80;;;;;;222798;1266;25207;-56
2023/12/17 06:31:45;;;;;;;2.10;1.30;;;23.70;55.50;;;;;;222796;1260;22626;-56
2023/12/17 06:36:49;;;;;;;1.40;1.30;;;23.70;55.80;;;;;;222925;1266;22545;-56
2023/12/17 06:41:54;;;;;;;1.30;1.20;;;23.70;55.40;;;;;;222613;1260;22532;-55
2023/12/17 06:46:58;;;;;;;2.60;1.60;;;23.70;55.80;;;;;;222943;1267;22956;-56
2023/12/17 06:52:06;;;;;;;1.30;1.20;;;23.60;55.70;;;;;;222266;1257;23268;-55
2023/12/17 06:57:10;;;;;;;1.80;1.20;;;23.60;55.60;;;;;;222867;1264;25264;-55
2023/12/17 07:02:15;;;;;;;2.20;1.30;;;23.60;55.60;;;;;;222761;1261;24565;-56
2023/12/17 07:07:20;;;;;;;3.00;1.20;;;23.60;55.80;;;;;;222577;1267;25223;-55
2023/12/17 07:12:25;;;;;;;1.70;1.30;;;23.50;56.00;;;;;;222661;1266;24296;-56
2023/12/17 07:17:30;;;;;;;1.90;1.20;;;23.50;56.40;;;;;;222757;1266;25227;-56
2023/12/17 07:22:34;;;;;;;1.00;1.00;;;23.40;56.00;;;;;;222675;1268;23922;-56
2023/12/17 07:27:38;;;;;;;1.40;1.30;;;23.30;56.30;;;;;;222417;1257;25074;-54
2023/12/17 07:32:44;;;;;;;1.70;1.40;;;23.20;56.80;;;;;;222641;1268;22531;-56
2023/12/17 07:37:49;;;;;;;1.30;1.10;;;23.20;56.70;;;;;;222475;1260;24217;-55
2023/12/17 07:42:54;;;;;;;5.50;1.10;;;23.10;56.60;;;;;;222033;1259;24374;-56
2023/12/17 07:47:59;;;;;;;4.40;1.20;;;23.10;56.90;;;;;;222217;1248;24337;-52
2023/12/17 07:53:04;;;;;;;6.40;1.10;;;23.10;57.00;;;;;;222138;1269;22521;-55
2023/12/17 07:58:08;;;;;;;6.90;1.40;;;23.10;56.80;;;;;;222116;1266;22512;-56
2023/12/17 08:03:13;;;;;;;3.00;1.30;;;23.00;57.20;;;;;;222069;1266;23128;-54
2023/12/17 08:08:22;;;;;;;4.80;1.10;;;23.00;56.70;;;;;;222212;1271;22520;-56
2023/12/17 08:13:26;;;;;;;6.20;1.30;;;23.00;57.10;;;;;;222698;1263;22521;-56
2023/12/17 08:18:31;;;;;;;1.20;1.10;;;22.90;56.90;;;;;;222912;1267;22514;-54
2023/12/17 08:23:39;;;;;;;1.40;1.10;;;22.90;57.10;;;;;;222625;1266;22516;-55
2023/12/17 08:28:46;;;;;;;3.00;1.40;;;23.10;57.20;;;;;;222097;1264;26547;-56
2023/12/17 08:33:52;;;;;;;16.50;1.30;;;23.40;56.30;;;;;;222488;1267;22564;-53
2023/12/17 08:38:58;;;;;;;2.60;1.30;;;23.60;56.00;;;;;;222652;1268;22528;-52
2023/12/17 08:44:03;;;;;;;6.70;1.20;;;23.70;55.80;;;;;;222930;1268;25702;-51
2023/12/17 08:49:07;;;;;;;2.70;1.20;;;23.70;55.60;;;;;;222611;1268;26506;-48
2023/12/17 08:54:13;;;;;;;9.60;1.80;;;23.70;55.40;;;;;;222550;1260;22511;-50
2023/12/17 08:59:17;;;;;;;1.60;1.30;;;23.60;55.60;;;;;;222742;1261;22521;-52
2023/12/17 09:04:22;;;;;;;3.40;1.30;;;23.60;56.10;;;;;;222686;1267;24189;-48
2023/12/17 09:09:26;;;;;;;2.00;1.30;;;23.60;55.90;;;;;;222756;1268;22524;-49
2023/12/17 09:14:31;;;;;;;8.60;1.50;;;23.50;56.60;;;;;;222521;1264;25227;-49
2023/12/17 09:19:38;;;;;;;10.30;1.70;;;23.50;56.30;;;;;;222642;1269;22652;-53
2023/12/17 09:24:44;;;;;;;4.30;1.40;;;23.50;56.30;;;;;;222540;1268;22650;-51
2023/12/17 09:29:52;;;;;;;5.30;1.70;;;23.40;56.80;;;;;;222289;1262;24201;-50
2023/12/17 09:34:56;;;;;;;2.60;1.50;;;23.30;57.70;;;;;;222404;1269;24193;-52
2023/12/17 09:40:02;;;;;;;3.40;1.40;;;23.10;59.30;;;;;;222151;1263;24418;-53
2023/12/17 09:45:20;;;;;;;3.60;1.80;;;23.10;59.00;;;;;;222714;1267;24237;-53
2023/12/17 09:50:27;;;;;;;4.10;1.70;;;23.10;59.40;;;;;;222071;1267;23787;-49
2023/12/17 09:55:32;;;;;;;8.20;1.70;;;23.00;59.50;;;;;;222702;1266;24224;-52
2023/12/17 10:00:42;;;;;;;5.20;1.80;;;23.00;59.40;;;;;;222993;1269;22534;-50
2023/12/17 10:05:51;;;;;;;3.60;1.60;;;23.00;59.30;;;;;;222427;1258;22524;-48
2023/12/17 10:10:56;;;;;;;4.70;1.70;;;22.90;59.10;;;;;;222600;1268;24348;-51
2023/12/17 10:16:00;;;;;;;7.40;1.80;;;22.90;58.60;;;;;;223070;1266;22521;-51
2023/12/17 10:21:07;;;;;;;9.00;1.70;;;22.90;58.00;;;;;;222726;1268;25208;-52
2023/12/17 10:26:12;;;;;;;23.60;11.40;;;22.80;58.90;;;;;;222630;1266;26267;-47
2023/12/17 10:31:17;;;;;;;57.60;28.80;;;22.90;58.90;;;;;;222627;1267;25284;-48
2023/12/17 10:36:23;;;;;;;70.20;32.10;;;22.90;58.90;;;;;;222642;1268;24212;-49
2023/12/17 10:41:29;;;;;;;57.10;30.50;;;22.80;59.20;;;;;;222961;1250;22518;-50
2023/12/17 10:46:34;;;;;;;55.70;30.50;;;22.80;59.20;;;;;;222726;1268;23144;-48
2023/12/17 10:51:40;;;;;;;54.80;28.70;;;22.70;59.00;;;;;;222580;1266;25578;-46
2023/12/17 10:56:51;;;;;;;45.30;23.50;;;22.70;59.00;;;;;;222644;1260;23298;-48
2023/12/17 11:01:58;;;;;;;38.60;20.80;;;23.20;57.70;;;;;;222737;1260;24190;-45
2023/12/17 11:07:02;;;;;;;38.00;19.20;;;23.60;56.90;;;;;;222881;1261;24202;-48
2023/12/17 11:12:07;;;;;;;34.20;18.20;;;23.80;56.10;;;;;;222743;1264;25715;-47
2023/12/17 11:17:14;;;;;;;36.40;19.00;;;23.90;55.70;;;;;;222334;1266;22511;-49
2023/12/17 11:22:20;;;;;;;27.90;17.10;;;23.80;56.40;;;;;;222311;1266;24340;-45
2023/12/17 11:27:25;;;;;;;33.20;18.10;;;23.70;56.40;;;;;;222094;1264;27048;-47
2023/12/17 11:32:31;;;;;;;37.50;17.70;;;23.70;56.70;;;;;;222302;1264;24258;-47
2023/12/17 11:37:35;;;;;;;28.10;15.80;;;23.60;57.00;;;;;;222556;1268;24253;-46
2023/12/17 11:42:40;;;;;;;25.90;15.70;;;23.50;57.10;;;;;;222589;1268;22508;-43
2023/12/17 11:47:44;;;;;;;31.20;16.40;;;23.60;57.40;;;;;;222545;1264;24195;-48
2023/12/17 11:53:01;;;;;;;28.00;15.60;;;23.60;57.00;;;;;;222546;1268;22556;-44
2023/12/17 11:58:06;;;;;;;24.30;14.00;;;23.70;57.20;;;;;;222067;1267;22543;-43
2023/12/17 12:03:10;;;;;;;26.70;13.80;;;23.70;56.60;;;;;;221857;1266;22528;-46
2023/12/17 12:08:15;;;;;;;20.70;12.50;;;23.70;56.40;;;;;;222437;1264;22553;-47
2023/12/17 12:13:21;;;;;;;19.90;13.40;;;23.60;57.20;;;;;;222379;1264;22528;-48
2023/12/17 12:18:27;;;;;;;24.60;13.60;;;23.50;57.30;;;;;;222369;1268;22559;-46
2023/12/17 12:23:32;;;;;;;27.30;14.80;;;23.50;60.20;;;;;;222997;1261;22629;-44
2023/12/17 12:28:37;;;;;;;22.80;12.70;;;23.60;60.30;;;;;;222755;1261;22588;-53
2023/12/17 12:33:50;;;;;;;30.40;13.20;;;23.60;60.80;;;;;;222642;1267;24195;-54
2023/12/17 12:39:04;;;;;;;20.30;12.40;;;23.70;61.30;;;;;;222450;1268;23845;-50
2023/12/17 12:44:13;;;;;;;23.00;12.40;;;23.80;60.70;;;;;;222717;1254;26241;-57
2023/12/17 12:49:17;;;;;;;20.60;12.20;;;23.70;60.90;;;;;;222528;1258;24426;-56
2023/12/17 12:54:22;;;;;;;17.90;11.90;;;23.80;61.00;;;;;;222635;1268;24239;-57
2023/12/17 12:59:27;;;;;;;20.70;11.30;;;23.90;61.70;;;;;;222200;1250;22511;-56
2023/12/17 13:04:32;;;;;;;21.20;11.40;;;23.70;61.20;;;;;;222829;1260;24263;-55
2023/12/17 13:09:36;;;;;;;21.40;11.50;;;23.70;61.50;;;;;;222697;1254;22508;-48
2023/12/17 13:14:41;;;;;;;17.00;10.80;;;23.80;61.00;;;;;;222488;1267;24231;-45
2023/12/17 13:19:46;;;;;;;18.60;9.90;;;23.70;61.00;;;;;;222173;1264;22524;-46
2023/12/17 13:24:51;;;;;;;21.90;11.00;;;23.50;61.90;;;;;;222848;1260;25341;-47
2023/12/17 13:29:56;;;;;;;20.90;10.50;;;23.60;61.70;;;;;;222948;1254;24234;-48
2023/12/17 13:35:00;;;;;;;20.10;9.90;;;23.50;62.40;;;;;;222515;1264;22534;-50
2023/12/17 13:40:06;;;;;;;18.30;8.50;;;23.60;62.80;;;;;;222929;1268;24212;-52
2023/12/17 13:45:11;;;;;;;17.30;9.50;;;23.60;60.90;;;;;;222684;1250;24231;-45
2023/12/17 13:50:19;;;;;;;17.50;8.60;;;23.40;60.80;;;;;;222591;1268;24311;-45
2023/12/17 13:55:24;;;;;;;20.60;8.70;;;23.40;60.20;;;;;;222427;1257;22900;-46
2023/12/17 14:00:29;;;;;;;15.90;8.20;;;23.50;60.00;;;;;;223120;1260;22515;-46
2023/12/17 14:05:34;;;;;;;20.10;7.70;;;23.60;60.50;;;;;;222582;1261;25359;-47
2023/12/17 14:10:38;;;;;;;16.60;7.70;;;23.50;60.50;;;;;;222719;1255;22531;-49
2023/12/17 14:15:43;;;;;;;17.90;6.60;;;23.60;60.80;;;;;;222693;1268;22644;-47
2023/12/17 14:20:47;;;;;;;12.40;6.60;;;23.60;61.10;;;;;;222737;1260;24233;-47
2023/12/17 14:25:52;;;;;;;15.30;6.90;;;23.40;60.90;;;;;;222570;1268;24339;-46
2023/12/17 14:30:56;;;;;;;13.00;7.30;;;23.40;61.20;;;;;;222728;1257;24747;-49
2023/12/17 14:36:01;;;;;;;19.20;6.80;;;23.40;61.50;;;;;;222680;1254;24222;-47
2023/12/17 14:41:07;;;;;;;13.00;7.10;;;23.40;60.50;;;;;;222679;1254;24258;-47
2023/12/17 14:46:12;;;;;;;15.00;6.80;;;23.50;60.10;;;;;;222567;1267;24392;-48
2023/12/17 14:51:18;;;;;;;17.90;6.60;;;23.40;60.00;;;;;;222825;1260;22518;-44
2023/12/17 14:56:23;;;;;;;10.90;6.40;;;23.40;59.70;;;;;;222980;1261;22557;-45
2023/12/17 15:01:29;;;;;;;10.30;5.60;;;23.30;59.90;;;;;;222561;1263;22917;-47
2023/12/17 15:06:38;;;;;;;11.70;6.60;;;23.20;60.30;;;;;;222739;1263;24262;-45
2023/12/17 15:11:43;;;;;;;9.60;5.60;;;23.10;60.20;;;;;;222333;1256;22545;-45
2023/12/17 15:16:48;;;;;;;8.20;5.90;;;23.10;60.00;;;;;;222114;1260;24190;-45
2023/12/17 15:21:53;;;;;;;11.00;6.50;;;23.00;60.70;;;;;;222474;1266;22609;-54
2023/12/17 15:26:58;;;;;;;8.80;6.20;;;23.10;60.10;;;;;;222494;1257;22636;-50
2023/12/17 15:32:04;;;;;;;8.40;5.20;;;23.10;60.30;;;;;;222313;1253;25485;-54
2023/12/17 15:37:09;;;;;;;9.80;5.80;;;23.00;60.00;;;;;;222462;1250;25377;-47
2023/12/17 15:42:14;;;;;;;8.60;5.80;;;23.00;60.40;;;;;;222562;1260;24199;-47
2023/12/17 15:47:18;;;;;;;10.30;5.70;;;22.90;59.60;;;;;;222505;1250;23902;-48
2023/12/17 15:52:23;;;;;;;8.60;6.30;;;22.80;59.70;;;;;;223267;1260;24223;-47
2023/12/17 15:57:28;;;;;;;12.00;6.00;;;22.80;59.50;;;;;;222425;1260;24340;-48
2023/12/17 16:02:32;;;;;;;9.30;5.70;;;22.90;60.00;;;;;;222630;1253;25602;-48
2023/12/17 16:07:53;;;;;;;9.10;5.60;;;23.00;60.60;;;;;;222629;1253;27717;-50
2023/12/17 16:12:58;;;;;;;15.10;5.90;;;23.10;60.60;;;;;;222470;1260;25388;-47
2023/12/17 16:18:04;;;;;;;10.40;6.00;;;23.00;60.30;;;;;;222315;1260;22572;-45
2023/12/17 16:23:09;;;;;;;7.20;5.90;;;22.90;61.00;;;;;;222449;1264;24410;-44
2023/12/17 16:28:14;;;;;;;13.90;6.80;;;22.80;60.50;;;;;;222578;1263;23846;-45
2023/12/17 16:33:19;;;;;;;14.00;8.20;;;22.80;61.00;;;;;;222418;1260;25281;-46
2023/12/17 16:38:24;;;;;;;12.30;7.30;;;22.90;60.60;;;;;;222426;1266;24210;-45
2023/12/17 16:43:30;;;;;;;13.40;6.70;;;23.00;60.30;;;;;;222234;1260;23135;-44
2023/12/17 16:48:36;;;;;;;11.70;6.20;;;23.30;59.50;;;;;;222577;1260;22651;-44
2023/12/17 16:53:41;;;;;;;8.00;6.50;;;23.80;58.00;;;;;;222392;1253;25460;-45
2023/12/17 16:58:45;;;;;;;11.50;6.10;;;24.10;57.70;;;;;;222145;1260;25524;-54
2023/12/17 17:03:50;;;;;;;12.20;6.70;;;24.10;57.50;;;;;;222561;1268;22637;-50
2023/12/17 17:08:55;;;;;;;7.70;6.40;;;24.00;57.90;;;;;;222189;1263;24176;-54
2023/12/17 17:13:59;;;;;;;9.40;6.90;;;23.90;57.60;;;;;;222403;1264;22633;-50
2023/12/17 17:19:05;;;;;;;10.50;7.00;;;23.90;57.30;;;;;;222167;1261;25386;-52
2023/12/17 17:24:11;;;;;;;11.10;7.40;;;23.80;57.60;;;;;;221823;1253;24079;-52
2023/12/17 17:29:16;;;;;;;17.90;8.50;;;23.70;57.70;;;;;;222358;1256;25332;-55
2023/12/17 17:34:21;;;;;;;15.80;9.50;;;23.80;57.50;;;;;;222232;1266;24179;-54
2023/12/17 17:39:29;;;;;;;14.10;8.70;;;23.70;57.30;;;;;;222435;1267;23935;-55
2023/12/17 17:44:34;;;;;;;14.30;8.20;;;23.60;57.40;;;;;;222387;1266;24287;-53
2023/12/17 17:49:47;;;;;;;13.30;8.50;;;23.50;58.30;;;;;;222232;1260;25482;-56
2023/12/17 17:54:51;;;;;;;17.70;9.70;;;23.30;58.20;;;;;;222500;1266;22527;-56
2023/12/17 17:59:56;;;;;;;15.20;8.70;;;23.30;57.90;;;;;;222641;1263;22534;-53
2023/12/17 18:05:01;;;;;;;15.20;9.00;;;23.10;58.30;;;;;;222456;1260;24196;-51
2023/12/17 18:10:07;;;;;;;11.60;8.70;;;23.10;58.00;;;;;;222530;1253;22515;-54
2023/12/17 18:15:13;;;;;;;14.20;8.80;;;23.20;58.20;;;;;;222366;1260;22792;-47
2023/12/17 18:20:39;;;;;;;11.80;8.10;;;23.00;58.40;;;;;;222871;1260;22637;-53
2023/12/17 18:26:00;;;;;;;12.40;9.00;;;22.80;59.00;;;;;;219440;1256;4220256;-52
2023/12/17 18:31:05;;;;;;;11.90;9.20;;;22.80;58.50;;;;;;222684;1260;22598;-50
2023/12/17 18:36:11;;;;;;;16.20;9.80;;;22.80;58.80;;;;;;222769;1256;25236;-51
2023/12/17 18:41:22;;;;;;;12.40;9.20;;;23.10;57.90;;;;;;222587;1253;25612;-48
2023/12/17 18:46:28;;;;;;;14.50;9.70;;;23.60;56.80;;;;;;222224;1263;22558;-50
2023/12/17 18:51:37;;;;;;;11.80;8.60;;;23.90;56.10;;;;;;221973;1253;27341;-52
2023/12/17 18:56:42;;;;;;;11.90;8.70;;;24.00;55.50;;;;;;222123;1257;22527;-50
2023/12/17 19:01:47;;;;;;;15.20;9.80;;;23.90;55.30;;;;;;222309;1256;25274;-48
2023/12/17 19:06:52;;;;;;;16.70;10.30;;;23.80;56.10;;;;;;222678;1260;22503;-47
2023/12/17 19:11:57;;;;;;;18.50;9.90;;;23.60;56.30;;;;;;222351;1254;23578;-48
2023/12/17 19:17:05;;;;;;;26.20;9.50;;;23.60;56.10;;;;;;222625;1268;22524;-46
2023/12/17 19:22:12;;;;;;;15.50;9.70;;;23.40;56.90;;;;;;222378;1268;24209;-46
2023/12/17 19:27:17;;;;;;;17.30;9.60;;;23.40;55.90;;;;;;222493;1267;24223;-44
2023/12/17 19:32:22;;;;;;;18.00;9.60;;;23.50;55.90;;;;;;222577;1266;25673;-46
2023/12/17 19:37:27;;;;;;;20.20;10.60;;;23.50;55.60;;;;;;222858;1247;24308;-45
2023/12/17 19:42:32;;;;;;;15.90;9.60;;;23.40;56.10;;;;;;222341;1259;24185;-45
2023/12/17 19:47:38;;;;;;;19.40;10.60;;;23.40;55.70;;;;;;222670;1268;22571;-47
2023/12/17 19:52:43;;;;;;;19.00;9.40;;;23.30;57.50;;;;;;222964;1264;24211;-47
2023/12/17 19:57:49;;;;;;;18.20;10.50;;;23.30;57.10;;;;;;222579;1268;22531;-44
2023/12/17 20:02:53;;;;;;;16.10;11.00;;;23.30;57.70;;;;;;222218;1253;24375;-46
2023/12/17 20:07:58;;;;;;;14.40;9.80;;;23.20;56.00;;;;;;222399;1266;22527;-46
2023/12/17 20:13:03;;;;;;;18.70;10.50;;;23.20;56.80;;;;;;223006;1264;24315;-47
2023/12/17 20:18:15;;;;;;;14.90;9.90;;;23.20;56.30;;;;;;222352;1261;22849;-46
2023/12/17 20:23:22;;;;;;;18.10;9.60;;;23.10;56.40;;;;;;222427;1267;24277;-48
2023/12/17 20:28:26;;;;;;;18.10;9.90;;;23.00;57.00;;;;;;222251;1254;22536;-48
2023/12/17 20:33:33;;;;;;;20.60;10.40;;;23.00;57.80;;;;;;222651;1264;22531;-46
2023/12/17 20:38:46;;;;;;;16.80;9.90;;;22.90;58.60;;;;;;222533;1254;22525;-44
2023/12/17 20:43:51;;;;;;;13.90;9.60;;;23.00;58.20;;;;;;222625;1268;24059;-46
2023/12/17 20:48:56;;;;;;;15.90;9.20;;;22.70;58.40;;;;;;222627;1259;25329;-45
2023/12/17 20:54:04;;;;;;;16.20;10.50;;;22.80;57.90;;;;;;221106;1272;23341;-44
2023/12/17 20:59:09;;;;;;;18.20;9.60;;;23.30;56.90;;;;;;221330;1268;22799;-45
2023/12/17 21:04:14;;;;;;;15.80;9.80;;;23.80;55.60;;;;;;221217;1268;22543;-46
2023/12/17 21:09:18;;;;;;;15.20;8.90;;;24.00;55.00;;;;;;221279;1268;24205;-44
2023/12/17 21:14:23;;;;;;;13.40;9.20;;;24.10;54.70;;;;;;221306;1269;24350;-44
2023/12/17 21:19:28;;;;;;;14.70;9.30;;;24.10;54.60;;;;;;222162;1261;23143;-45
2023/12/17 21:24:34;;;;;;;15.20;9.20;;;23.90;54.60;;;;;;222790;1265;22510;-44
2023/12/17 21:29:38;;;;;;;13.10;8.80;;;23.80;54.70;;;;;;222498;1267;23929;-50
2023/12/17 21:34:43;;;;;;;17.30;8.90;;;23.70;55.10;;;;;;222494;1250;23511;-48
2023/12/17 21:39:48;;;;;;;21.60;8.70;;;23.60;55.30;;;;;;222342;1262;24192;-47
2023/12/17 21:44:53;;;;;;;12.90;9.80;;;23.60;55.10;;;;;;222302;1250;24305;-50
2023/12/17 21:49:57;;;;;;;10.50;8.10;;;23.50;55.30;;;;;;222519;1263;22530;-50
2023/12/17 21:55:03;;;;;;;14.90;8.80;;;23.40;55.60;;;;;;222878;1263;22856;-49
2023/12/17 22:00:18;;;;;;;14.60;8.70;;;23.30;55.40;;;;;;222177;1263;25412;-52
2023/12/17 22:05:23;;;;;;;12.90;8.20;;;23.30;55.40;;;;;;222268;1247;26524;-54
2023/12/17 22:10:28;;;;;;;12.10;7.80;;;23.50;55.10;;;;;;223819;1262;26591;-51
2023/12/17 22:15:33;;;;;;;10.70;8.40;;;23.80;54.60;;;;;;222561;1257;22516;-53
2023/12/17 22:20:37;;;;;;;11.50;8.10;;;24.00;54.50;;;;;;222516;1262;22644;-55
2023/12/17 22:25:42;;;;;;;13.80;8.00;;;24.10;54.10;;;;;;222322;1266;22611;-60
2023/12/17 22:30:47;;;;;;;11.40;7.90;;;24.00;54.80;;;;;;222653;1253;24941;-57
2023/12/17 22:35:55;;;;;;;10.10;7.30;;;24.10;54.40;;;;;;222801;1263;24344;-58
2023/12/17 22:41:00;;;;;;;9.40;7.60;;;24.10;54.70;;;;;;222596;1262;24310;-58
2023/12/17 22:46:14;;;;;;;10.40;7.60;;;24.00;54.70;;;;;;222769;1264;22518;-58
2023/12/17 22:51:54;;;;;;;9.80;6.90;;;23.90;55.00;;;;;;222123;1268;22605;-58
2023/12/17 22:56:59;;;;;;;11.10;7.30;;;23.90;55.00;;;;;;222872;1266;24078;-57
2023/12/17 23:02:04;;;;;;;9.00;7.40;;;23.80;55.10;;;;;;222423;1264;24693;-57
2023/12/17 23:07:10;;;;;;;12.70;7.60;;;23.80;55.20;;;;;;222424;1259;24327;-60
2023/12/17 23:12:14;;;;;;;8.80;7.20;;;23.60;55.40;;;;;;222535;1263;22672;-50
2023/12/17 23:17:19;;;;;;;13.10;7.60;;;23.40;56.10;;;;;;222593;1266;23270;-52
2023/12/17 23:22:25;;;;;;;9.40;7.50;;;23.40;55.90;;;;;;222310;1259;24329;-49
2023/12/17 23:27:31;;;;;;;10.10;7.10;;;23.50;55.50;;;;;;222656;1246;22689;-52
2023/12/17 23:32:35;;;;;;;12.70;6.90;;;23.80;55.60;;;;;;222601;1263;25284;-51
2023/12/17 23:37:40;;;;;;;9.80;7.60;;;24.00;55.80;;;;;;222367;1254;22648;-52
2023/12/17 23:42:45;;;;;;;9.80;6.90;;;24.10;55.00;;;;;;222405;1263;25275;-52
2023/12/17 23:47:49;;;;;;;7.60;6.60;;;24.20;55.10;;;;;;222518;1266;23181;-52
2023/12/17 23:52:54;;;;;;;9.60;6.90;;;24.20;55.20;;;;;;222613;1257;22528;-50
2023/12/17 23:58:00;;;;;;;6.90;6.20;;;24.10;55.50;;;;;;222642;1263;22516;-51
